Terminal Aerodrome Forecast
Issued by NWS

Home | Current Version | Previous Version | Graphics & Text | Print | Product List | Glossary On
Versions: 1 2 3 4 5 6 7 8 9 10 11 12 13 14 15 16
000
FTUS45 KGGW 171720
TAFOLF
TAF
KOLF 171720Z 1718/1818 24013KT P6SM SKC
     FM180100 24008KT P6SM FEW200
     FM180300 24015KT P6SM SCT200 WS020/25050KT
     FM180700 28020G29KT P6SM FEW150
     FM181500 28014KT P6SM FEW200=

USA.gov is the U.S. government's official web portal to all federal, state and local government web resources and services.